Time;durP1;ratioP1;P1;durP2;ratioP2;P2;SDS_P1;SDS_P2;PMS_P1;PMS_P2;Temp;Humidity;BMP_temperature;BMP_pressure;BME280_temperature;BME280_humidity;BME280_pressure;Samples;Min_cycle;Max_cycle;Signal;HPM_P1;HPM_P2
2023/02/22 00:01:17;;;;;;;12.38;7.80;;;4.00;99.90;;;;;;6229073;28;20548;-81
2023/02/22 00:04:20;;;;;;;12.73;6.95;;;3.90;99.90;;;;;;6228669;28;20046;-79
2023/02/22 00:07:23;;;;;;;9.57;5.53;;;3.80;99.90;;;;;;6228258;28;20050;-79
2023/02/22 00:10:25;;;;;;;10.40;6.32;;;3.80;99.90;;;;;;6242007;22;20100;-80
2023/02/22 00:13:28;;;;;;;7.38;6.15;;;3.70;99.90;;;;;;6229092;28;20045;-80
2023/02/22 00:16:30;;;;;;;9.15;6.20;;;3.70;99.90;;;;;;6230476;28;20467;-80
2023/02/22 00:19:32;;;;;;;11.20;6.35;;;3.70;99.90;;;;;;6228124;28;20072;-77
2023/02/22 00:22:36;;;;;;;14.45;7.18;;;3.70;99.90;;;;;;6225019;28;20109;-78
2023/02/22 00:25:38;;;;;;;14.63;8.00;;;3.60;99.90;;;;;;6230227;28;20046;-78
2023/02/22 00:28:41;;;;;;;13.63;7.93;;;3.50;99.90;;;;;;6234315;28;20050;-78
2023/02/22 00:31:43;;;;;;;9.68;6.78;;;3.50;99.90;;;;;;6232866;28;20054;-78
2023/02/22 00:34:44;;;;;;;7.60;5.88;;;3.60;99.90;;;;;;6231208;28;20054;-78
2023/02/22 00:37:49;;;;;;;9.27;6.18;;;3.60;99.90;;;;;;6228380;28;20038;-77
2023/02/22 00:40:51;;;;;;;7.70;6.05;;;3.50;99.90;;;;;;6224208;28;20049;-77
2023/02/22 00:43:52;;;;;;;7.88;5.70;;;3.50;99.90;;;;;;6224654;28;20058;-77
2023/02/22 00:46:54;;;;;;;11.07;5.60;;;3.50;99.90;;;;;;6224031;28;20042;-77
2023/02/22 00:49:56;;;;;;;9.48;6.05;;;3.50;99.90;;;;;;6224396;28;20137;-77
2023/02/22 00:53:01;;;;;;;8.43;5.68;;;3.40;99.90;;;;;;6224303;28;20052;-77
2023/02/22 00:56:02;;;;;;;8.80;5.40;;;3.40;99.90;;;;;;6223356;28;20054;-77
2023/02/22 00:59:04;;;;;;;10.45;6.47;;;3.40;99.90;;;;;;6225810;28;20042;-77
2023/02/22 01:02:06;;;;;;;7.70;6.45;;;3.40;99.90;;;;;;6224441;28;20471;-77
2023/02/22 01:05:12;;;;;;;6.80;5.32;;;3.30;99.90;;;;;;6224788;28;20046;-77
2023/02/22 01:08:16;;;;;;;6.35;4.88;;;3.30;99.90;;;;;;6226248;28;20049;-78
2023/02/22 01:11:18;;;;;;;7.25;5.82;;;3.20;99.90;;;;;;6224054;28;20057;-77
2023/02/22 01:14:20;;;;;;;9.73;4.65;;;3.20;99.90;;;;;;6223718;28;20046;-77
2023/02/22 01:17:22;;;;;;;10.77;5.15;;;3.10;99.90;;;;;;6223733;28;20169;-78
2023/02/22 01:20:25;;;;;;;10.60;5.80;;;3.10;99.90;;;;;;6224446;28;20058;-78
2023/02/22 01:23:28;;;;;;;5.25;4.57;;;3.10;99.90;;;;;;6225057;28;20049;-78
2023/02/22 01:26:30;;;;;;;9.85;5.32;;;3.10;99.90;;;;;;6223984;28;20045;-78
2023/02/22 01:29:31;;;;;;;7.35;5.22;;;3.10;99.90;;;;;;6223404;28;20052;-78
2023/02/22 01:32:34;;;;;;;6.65;4.68;;;3.00;99.90;;;;;;6224276;28;20049;-78
2023/02/22 01:35:39;;;;;;;9.18;5.95;;;3.10;99.90;;;;;;6223940;28;20050;-77
2023/02/22 01:38:43;;;;;;;9.15;4.85;;;3.10;99.90;;;;;;6221329;28;20038;-78
2023/02/22 01:41:46;;;;;;;8.57;5.90;;;3.10;99.90;;;;;;6223168;28;20047;-78
2023/02/22 01:45:21;;;;;;;11.82;6.88;;;3.10;99.90;;;;;;6223464;28;20057;-78
2023/02/22 01:48:29;;;;;;;10.80;4.72;;;3.00;99.90;;;;;;6222954;28;20045;-78
2023/02/22 01:51:36;;;;;;;9.77;6.15;;;3.00;99.90;;;;;;6223609;28;20046;-78
2023/02/22 01:54:44;;;;;;;8.35;5.38;;;3.00;99.90;;;;;;6222790;28;20054;-77
2023/02/22 01:57:46;;;;;;;10.13;6.22;;;3.00;99.90;;;;;;6222540;28;20048;-78
2023/02/22 02:00:48;;;;;;;8.18;5.95;;;3.00;99.90;;;;;;6222606;28;20053;-77
2023/02/22 02:03:51;;;;;;;9.32;4.68;;;2.90;99.90;;;;;;6223586;28;20065;-78
2023/02/22 02:06:56;;;;;;;5.57;4.72;;;2.90;99.90;;;;;;6221919;28;20053;-77
2023/02/22 02:10:00;;;;;;;7.60;4.57;;;2.90;99.90;;;;;;6222342;28;20045;-78
2023/02/22 02:13:03;;;;;;;11.05;5.05;;;2.90;99.90;;;;;;6222391;28;20050;-77
2023/02/22 02:16:05;;;;;;;6.10;5.50;;;2.90;99.90;;;;;;6222227;28;20398;-78
2023/02/22 02:19:14;;;;;;;7.78;5.32;;;2.90;99.90;;;;;;6222516;28;20062;-77
2023/02/22 02:22:43;;;;;;;6.15;5.45;;;2.80;99.90;;;;;;6222042;28;20046;-77
2023/02/22 02:26:09;;;;;;;9.55;5.68;;;2.80;99.90;;;;;;6222124;28;20112;-77
2023/02/22 02:29:42;;;;;;;7.93;4.93;;;2.80;99.90;;;;;;6222220;28;20049;-77
2023/02/22 02:32:57;;;;;;;9.68;5.57;;;2.80;99.90;;;;;;6222142;28;20499;-78
2023/02/22 02:36:03;;;;;;;6.88;5.60;;;2.80;99.90;;;;;;6222488;28;20579;-78
2023/02/22 02:39:10;;;;;;;6.50;5.10;;;2.70;99.90;;;;;;6221911;28;20532;-78
2023/02/22 02:42:16;;;;;;;8.48;5.55;;;2.60;99.90;;;;;;6221726;28;20053;-78
2023/02/22 02:45:23;;;;;;;8.40;4.63;;;2.60;99.90;;;;;;6222768;28;20049;-77
2023/02/22 02:48:29;;;;;;;5.72;4.95;;;2.60;99.90;;;;;;6222218;28;20073;-77
2023/02/22 02:51:34;;;;;;;7.05;6.07;;;2.60;99.90;;;;;;6222390;28;20499;-77
2023/02/22 02:54:37;;;;;;;7.75;5.57;;;2.60;99.90;;;;;;6222009;28;20049;-77
2023/02/22 02:57:39;;;;;;;8.40;5.28;;;2.60;99.90;;;;;;6221788;28;20045;-77
2023/02/22 03:00:42;;;;;;;7.47;5.70;;;2.70;99.90;;;;;;6222234;28;20050;-77
2023/02/22 03:04:06;;;;;;;8.45;5.97;;;2.60;99.90;;;;;;6222530;28;20053;-78
2023/02/22 03:07:28;;;;;;;10.13;6.28;;;2.70;99.90;;;;;;6222122;28;20045;-77
2023/02/22 03:10:44;;;;;;;10.20;5.30;;;2.60;99.90;;;;;;6221552;28;20073;-77
2023/02/22 03:13:54;;;;;;;10.50;6.00;;;2.60;99.90;;;;;;6221750;28;20072;-77
2023/02/22 03:17:05;;;;;;;7.63;6.85;;;2.60;99.90;;;;;;6221228;28;20058;-77
2023/02/22 03:20:14;;;;;;;6.90;5.13;;;2.60;99.90;;;;;;6223583;28;20045;-78
2023/02/22 03:23:24;;;;;;;11.23;6.45;;;2.60;99.90;;;;;;6227139;28;20056;-78
2023/02/22 03:26:31;;;;;;;12.45;7.28;;;2.60;99.90;;;;;;6226571;28;20526;-78
2023/02/22 03:29:35;;;;;;;11.73;6.55;;;2.60;99.90;;;;;;6226588;28;20045;-78
2023/02/22 03:32:41;;;;;;;9.68;6.70;;;2.50;99.90;;;;;;6226058;28;20052;-78
2023/02/22 03:35:48;;;;;;;7.68;5.93;;;2.50;99.90;;;;;;6227259;28;20049;-78
2023/02/22 03:38:54;;;;;;;9.15;6.95;;;2.60;99.90;;;;;;6226305;28;20050;-78
2023/02/22 03:41:57;;;;;;;7.97;7.10;;;2.60;99.90;;;;;;6226086;28;20050;-78
2023/02/22 03:45:03;;;;;;;11.45;7.93;;;2.50;99.90;;;;;;6226283;28;20046;-78
2023/02/22 03:48:12;;;;;;;9.55;7.30;;;2.50;99.90;;;;;;6225758;28;20448;-77
2023/02/22 03:51:17;;;;;;;9.45;6.93;;;2.50;99.90;;;;;;6225972;28;20405;-78
2023/02/22 03:54:18;;;;;;;14.75;8.00;;;2.50;99.90;;;;;;6225784;28;20496;-78
2023/02/22 03:57:26;;;;;;;9.57;6.55;;;2.50;99.90;;;;;;6225879;28;20061;-78
2023/02/22 04:00:32;;;;;;;14.90;7.07;;;2.50;99.90;;;;;;6225510;28;20543;-78
2023/02/22 04:03:33;;;;;;;10.88;6.05;;;2.50;99.90;;;;;;6227392;28;20050;-77
2023/02/22 04:06:36;;;;;;;10.10;6.20;;;2.40;99.90;;;;;;6224954;28;20042;-78
2023/02/22 04:09:38;;;;;;;8.00;6.53;;;2.40;99.90;;;;;;6225512;28;20048;-77
2023/02/22 04:12:40;;;;;;;18.98;9.13;;;2.40;99.90;;;;;;6225447;28;20042;-77
2023/02/22 04:15:42;;;;;;;12.20;7.57;;;2.40;99.90;;;;;;6225725;28;20054;-78
2023/02/22 04:18:43;;;;;;;10.02;6.60;;;2.30;99.90;;;;;;6225624;28;20496;-78
2023/02/22 04:21:47;;;;;;;7.70;6.90;;;2.30;99.90;;;;;;6225451;28;20572;-78
2023/02/22 04:24:48;;;;;;;13.07;8.48;;;2.30;99.90;;;;;;6225423;28;20424;-78
2023/02/22 04:27:50;;;;;;;14.90;8.45;;;2.30;99.90;;;;;;6225514;28;20054;-78
2023/02/22 04:30:52;;;;;;;13.93;8.45;;;2.30;99.90;;;;;;6228276;28;20590;-80
2023/02/22 04:33:54;;;;;;;15.20;8.18;;;2.20;99.90;;;;;;6229894;28;20546;-80
2023/02/22 04:36:57;;;;;;;14.75;8.25;;;2.10;99.90;;;;;;6225971;28;20053;-78
2023/02/22 04:39:59;;;;;;;10.55;8.25;;;2.10;99.90;;;;;;6225407;28;20053;-78
2023/02/22 04:43:01;;;;;;;8.00;6.85;;;2.00;99.90;;;;;;6226306;28;20136;-78
2023/02/22 04:46:03;;;;;;;10.23;7.68;;;2.00;99.90;;;;;;6225542;28;20052;-78
2023/02/22 04:49:05;;;;;;;10.32;7.40;;;2.00;99.90;;;;;;6225586;28;20189;-78
2023/02/22 04:52:08;;;;;;;11.50;8.20;;;2.00;99.90;;;;;;6225796;28;20058;-78
2023/02/22 04:55:10;;;;;;;9.50;7.22;;;1.90;99.90;;;;;;6226268;28;20049;-78
2023/02/22 04:58:11;;;;;;;15.55;7.97;;;1.90;99.90;;;;;;6225583;28;20050;-78
2023/02/22 05:01:14;;;;;;;16.45;9.73;;;1.90;99.90;;;;;;6225271;28;20046;-78
2023/02/22 05:04:15;;;;;;;14.25;9.43;;;1.90;99.90;;;;;;6225107;28;20056;-78
2023/02/22 05:07:18;;;;;;;13.90;9.43;;;1.90;99.90;;;;;;6225932;28;20046;-78
2023/02/22 05:10:20;;;;;;;11.65;9.07;;;1.90;99.90;;;;;;6224917;28;20506;-78
2023/02/22 05:13:22;;;;;;;11.27;10.00;;;1.90;99.90;;;;;;6224812;28;20053;-78
2023/02/22 05:16:24;;;;;;;11.45;9.13;;;1.90;99.90;;;;;;6224790;28;20060;-78
2023/02/22 05:19:26;;;;;;;11.35;9.02;;;1.80;99.90;;;;;;6225413;28;20097;-78
2023/02/22 05:22:29;;;;;;;16.80;11.63;;;1.80;99.90;;;;;;6224551;28;20052;-78
2023/02/22 05:25:32;;;;;;;14.57;13.00;;;1.80;99.90;;;;;;6224590;28;20053;-78
2023/02/22 05:28:33;;;;;;;15.90;12.60;;;1.80;99.90;;;;;;6224359;28;20440;-78
2023/02/22 05:31:35;;;;;;;16.35;10.85;;;1.80;99.90;;;;;;6224763;28;20397;-78
2023/02/22 05:34:37;;;;;;;14.15;10.43;;;1.80;99.90;;;;;;6224467;28;20431;-78
2023/02/22 05:37:40;;;;;;;12.15;9.60;;;1.80;99.90;;;;;;6224573;28;20501;-78
2023/02/22 05:40:42;;;;;;;12.93;9.57;;;1.80;99.90;;;;;;6224330;28;20057;-78
2023/02/22 05:43:44;;;;;;;11.52;9.20;;;1.80;99.90;;;;;;6224268;28;20689;-78
2023/02/22 05:46:45;;;;;;;15.98;10.55;;;1.70;99.90;;;;;;6223502;28;20050;-78
2023/02/22 05:49:47;;;;;;;14.13;10.80;;;1.70;99.90;;;;;;6224189;28;20052;-78
2023/02/22 05:52:51;;;;;;;16.13;10.50;;;1.70;99.90;;;;;;6225297;28;20047;-80
2023/02/22 05:55:52;;;;;;;15.95;11.50;;;1.70;99.90;;;;;;6227140;28;20049;-80
2023/02/22 05:58:54;;;;;;;15.30;11.50;;;1.70;99.90;;;;;;6226978;28;20045;-80
2023/02/22 06:01:56;;;;;;;11.20;9.20;;;1.70;99.90;;;;;;6227578;28;20137;-80
2023/02/22 06:04:58;;;;;;;15.45;11.65;;;1.70;99.90;;;;;;6228045;28;20049;-80
2023/02/22 06:08:02;;;;;;;16.55;12.10;;;1.70;99.90;;;;;;6228760;28;20139;-79
2023/02/22 06:11:04;;;;;;;15.48;9.73;;;1.70;99.90;;;;;;6243726;23;20052;-80
2023/02/22 06:14:05;;;;;;;19.75;12.02;;;1.70;99.90;;;;;;6232358;28;20050;-80
2023/02/22 06:17:07;;;;;;;23.67;11.05;;;1.70;99.90;;;;;;6232502;28;20056;-79
2023/02/22 06:20:10;;;;;;;13.45;10.02;;;1.70;99.90;;;;;;6232300;28;20049;-80
2023/02/22 06:23:13;;;;;;;14.05;10.65;;;1.70;99.90;;;;;;6233039;28;20056;-80
2023/02/22 06:26:16;;;;;;;11.27;8.77;;;1.70;99.90;;;;;;6233222;28;20061;-79
2023/02/22 06:29:18;;;;;;;9.98;7.75;;;1.70;99.90;;;;;;6228318;28;20053;-80
2023/02/22 06:32:19;;;;;;;15.70;10.32;;;1.70;99.90;;;;;;6222967;28;20046;-80
2023/02/22 06:35:22;;;;;;;10.90;8.57;;;1.70;99.90;;;;;;6223737;28;20049;-80
2023/02/22 06:38:27;;;;;;;13.38;9.38;;;1.70;99.90;;;;;;6223309;28;20423;-80
2023/02/22 06:41:28;;;;;;;14.87;10.07;;;1.70;99.90;;;;;;6224072;28;20092;-79
2023/02/22 06:44:30;;;;;;;18.42;11.07;;;1.70;99.90;;;;;;6224436;28;20046;-79
2023/02/22 06:47:32;;;;;;;16.42;10.05;;;1.80;99.90;;;;;;6227595;28;20061;-79
2023/02/22 06:50:33;;;;;;;11.13;8.98;;;1.80;99.90;;;;;;6228169;28;20049;-80
2023/02/22 06:53:36;;;;;;;14.30;9.83;;;1.80;99.90;;;;;;6228122;28;20412;-79
2023/02/22 06:56:38;;;;;;;15.60;10.68;;;1.80;99.90;;;;;;6239818;28;20050;-81
2023/02/22 06:59:40;;;;;;;14.10;9.48;;;1.90;99.90;;;;;;6235042;28;20057;-79
2023/02/22 07:02:42;;;;;;;14.00;10.07;;;2.00;99.90;;;;;;6226295;28;20046;-79
2023/02/22 07:05:44;;;;;;;12.82;10.25;;;2.10;99.90;;;;;;6234383;28;20046;-79
2023/02/22 07:08:48;;;;;;;13.38;9.27;;;2.20;99.90;;;;;;6231725;28;20046;-80
2023/02/22 07:11:50;;;;;;;21.88;10.68;;;2.30;99.90;;;;;;6231821;28;20099;-80
2023/02/22 07:14:55;;;;;;;13.75;10.23;;;2.40;99.90;;;;;;6228895;28;20042;-79
2023/02/22 07:17:57;;;;;;;18.30;9.60;;;2.50;99.90;;;;;;6234416;28;20105;-79
2023/02/22 07:20:59;;;;;;;13.23;10.55;;;2.60;99.90;;;;;;6233226;28;20054;-79
2023/02/22 07:24:02;;;;;;;22.27;13.15;;;2.70;99.90;;;;;;6231006;28;20061;-79
2023/02/22 07:27:04;;;;;;;19.27;12.10;;;2.80;99.90;;;;;;6230108;28;20489;-80
2023/02/22 07:30:07;;;;;;;21.45;10.77;;;2.90;99.90;;;;;;6229204;28;20053;-78
2023/02/22 07:33:11;;;;;;;20.73;11.75;;;3.00;99.90;;;;;;6232342;28;20049;-79
2023/02/22 07:36:16;;;;;;;17.25;12.02;;;3.10;99.90;;;;;;6230002;28;20054;-79
2023/02/22 07:39:19;;;;;;;27.75;10.20;;;3.20;99.90;;;;;;6238000;28;20133;-81
2023/02/22 07:42:21;;;;;;;28.15;10.77;;;3.30;99.90;;;;;;6236153;28;20049;-82
2023/02/22 07:45:24;;;;;;;23.75;10.40;;;3.50;99.90;;;;;;6235849;28;20052;-81
2023/02/22 07:48:29;;;;;;;16.52;9.85;;;3.60;99.90;;;;;;6237316;28;20046;-81
2023/02/22 07:51:31;;;;;;;21.08;10.77;;;3.70;99.90;;;;;;6235993;28;20056;-80
2023/02/22 07:54:34;;;;;;;27.25;12.13;;;3.90;99.90;;;;;;6239859;28;20060;-79
2023/02/22 07:57:36;;;;;;;21.02;10.15;;;4.00;99.90;;;;;;6241142;28;20046;-79
2023/02/22 08:00:39;;;;;;;23.33;12.52;;;4.20;99.90;;;;;;6242720;28;20056;-80
2023/02/22 08:03:41;;;;;;;14.52;10.57;;;4.40;99.90;;;;;;6243916;28;20048;-79
2023/02/22 08:06:45;;;;;;;18.63;11.75;;;4.70;99.90;;;;;;6245061;28;20049;-79
2023/02/22 08:09:48;;;;;;;12.18;9.63;;;4.80;99.90;;;;;;6245585;28;20074;-81
2023/02/22 08:12:50;;;;;;;23.30;11.93;;;5.10;99.90;;;;;;6244345;28;20052;-81
2023/02/22 08:15:53;;;;;;;15.25;9.88;;;5.30;99.90;;;;;;6243335;28;20050;-81
2023/02/22 08:18:55;;;;;;;12.80;9.95;;;5.60;99.90;;;;;;6242615;28;20053;-81
2023/02/22 08:21:56;;;;;;;12.43;9.43;;;5.90;99.90;;;;;;6243020;28;20052;-81
2023/02/22 08:24:59;;;;;;;13.60;9.65;;;6.20;99.90;;;;;;6241772;28;20056;-80
2023/02/22 08:28:04;;;;;;;20.27;10.48;;;6.50;99.90;;;;;;6241672;28;20049;-80
2023/02/22 08:31:06;;;;;;;15.77;12.25;;;6.80;99.90;;;;;;6241490;28;20041;-82
2023/02/22 08:34:08;;;;;;;18.35;11.50;;;7.20;99.90;;;;;;6243508;28;20057;-80
2023/02/22 08:37:09;;;;;;;14.25;10.77;;;7.50;99.90;;;;;;6244440;28;20061;-80
2023/02/22 08:40:16;;;;;;;15.88;10.40;;;7.80;99.90;;;;;;6244970;28;20056;-80
2023/02/22 08:43:18;;;;;;;9.77;8.25;;;8.10;99.90;;;;;;6246056;28;20337;-81
2023/02/22 08:46:20;;;;;;;12.07;8.55;;;8.40;99.90;;;;;;6245160;28;20056;-81
2023/02/22 08:49:22;;;;;;;11.15;9.45;;;8.60;99.90;;;;;;6246323;28;20042;-82
2023/02/22 08:52:24;;;;;;;11.68;8.65;;;8.80;99.90;;;;;;6247481;28;20054;-81
2023/02/22 08:55:29;;;;;;;10.65;8.48;;;9.10;99.90;;;;;;6246105;28;20062;-80
2023/02/22 08:58:31;;;;;;;10.00;7.47;;;9.20;99.90;;;;;;6239811;28;20465;-81
2023/02/22 09:01:33;;;;;;;13.82;8.18;;;9.40;99.90;;;;;;6234275;28;20054;-81
2023/02/22 09:04:35;;;;;;;9.75;8.63;;;9.70;99.90;;;;;;6238061;28;20053;-80
2023/02/22 09:07:37;;;;;;;14.68;7.95;;;10.00;99.90;;;;;;6232330;28;20431;-81
2023/02/22 09:10:40;;;;;;;10.35;7.30;;;10.20;99.90;;;;;;6229354;28;20048;-80
2023/02/22 09:13:42;;;;;;;10.68;7.45;;;10.40;99.90;;;;;;6230092;28;20042;-80
2023/02/22 09:16:44;;;;;;;11.23;8.07;;;10.70;99.90;;;;;;6230277;28;20053;-81
2023/02/22 09:19:45;;;;;;;9.00;7.57;;;10.90;99.90;;;;;;6234186;28;20050;-81
2023/02/22 09:22:48;;;;;;;10.57;7.45;;;11.20;99.90;;;;;;6240399;28;20050;-80
2023/02/22 09:25:51;;;;;;;9.07;7.13;;;11.40;99.90;;;;;;6245230;28;20112;-80
2023/02/22 09:28:53;;;;;;;11.65;9.02;;;11.60;99.90;;;;;;6242404;28;20046;-80
2023/02/22 09:31:55;;;;;;;9.45;7.97;;;11.90;99.90;;;;;;6242982;28;20046;-80
2023/02/22 09:34:57;;;;;;;10.52;7.97;;;12.00;99.90;;;;;;6242931;28;20061;-80
2023/02/22 09:38:00;;;;;;;11.20;8.63;;;12.20;99.90;;;;;;6242429;28;20053;-80
2023/02/22 09:41:13;;;;;;;11.07;6.57;;;12.30;99.90;;;;;;6242095;28;20077;-80
2023/02/22 09:44:22;;;;;;;9.68;8.60;;;12.50;99.90;;;;;;6242680;28;20065;-80
2023/02/22 09:47:33;;;;;;;11.65;8.50;;;12.70;99.90;;;;;;6241554;28;20050;-80
2023/02/22 09:50:41;;;;;;;11.98;8.00;;;12.90;99.90;;;;;;6242412;28;20045;-80
2023/02/22 09:53:47;;;;;;;13.25;8.57;;;13.00;99.90;;;;;;6242903;28;20073;-81
2023/02/22 09:56:53;;;;;;;8.88;7.82;;;13.20;99.90;;;;;;6241891;28;20467;-81
2023/02/22 10:00:11;;;;;;;12.68;8.32;;;13.50;99.90;;;;;;6243751;28;20050;-80
2023/02/22 10:03:22;;;;;;;11.30;8.13;;;13.70;99.90;;;;;;6242708;28;20060;-81
2023/02/22 10:06:24;;;;;;;12.10;7.63;;;13.90;99.90;;;;;;6242605;28;20096;-81
2023/02/22 10:09:28;;;;;;;12.50;9.07;;;14.20;99.90;;;;;;6238795;28;20046;-81
2023/02/22 10:12:38;;;;;;;13.32;10.20;;;14.40;98.70;;;;;;6238073;28;20042;-81
2023/02/22 10:15:48;;;;;;;17.88;10.23;;;14.50;98.10;;;;;;6237549;28;20443;-82
2023/02/22 10:19:14;;;;;;;14.07;9.60;;;14.60;97.30;;;;;;6215813;28;20129;-80
2023/02/22 10:22:33;;;;;;;15.30;10.27;;;14.60;96.80;;;;;;6218179;28;20094;-81
2023/02/22 10:25:38;;;;;;;13.07;10.02;;;15.00;96.80;;;;;;6221173;28;20046;-82
2023/02/22 10:28:47;;;;;;;11.10;9.75;;;15.40;96.10;;;;;;6221719;28;20416;-79
2023/02/22 10:31:54;;;;;;;12.98;10.00;;;15.60;95.10;;;;;;6220727;28;20050;-81
2023/02/22 10:34:59;;;;;;;11.82;9.48;;;15.70;94.60;;;;;;6221719;28;20050;-80
2023/02/22 10:38:11;;;;;;;14.70;11.05;;;15.70;94.40;;;;;;6217745;28;20057;-80
2023/02/22 10:41:21;;;;;;;14.95;11.23;;;15.60;93.50;;;;;;6234895;28;20054;-80
2023/02/22 10:44:25;;;;;;;16.52;10.90;;;15.50;93.10;;;;;;6242616;28;20054;-80
2023/02/22 10:47:26;;;;;;;19.50;10.88;;;15.50;93.00;;;;;;6241665;28;20117;-81
2023/02/22 10:50:31;;;;;;;12.60;10.52;;;15.60;92.60;;;;;;6243405;28;20045;-82
2023/02/22 10:53:36;;;;;;;12.88;9.75;;;15.70;92.10;;;;;;6246057;28;20042;-81
2023/02/22 10:56:47;;;;;;;14.07;11.25;;;15.80;91.90;;;;;;6244544;28;20496;-80
2023/02/22 10:59:51;;;;;;;14.40;10.45;;;15.90;91.60;;;;;;6243589;28;20077;-81
2023/02/22 11:02:55;;;;;;;18.25;11.85;;;15.90;91.30;;;;;;6245003;28;20045;-81
2023/02/22 11:06:17;;;;;;;14.35;10.60;;;16.00;91.10;;;;;;6244272;28;20049;-80
2023/02/22 11:09:21;;;;;;;13.98;11.10;;;16.00;90.40;;;;;;6244125;28;20072;-81
2023/02/22 11:12:29;;;;;;;15.05;11.52;;;16.10;90.30;;;;;;6244658;28;20034;-81
2023/02/22 11:15:32;;;;;;;13.85;11.80;;;16.20;90.00;;;;;;6244965;28;20110;-80
2023/02/22 11:18:35;;;;;;;16.27;12.10;;;16.20;89.80;;;;;;6244192;28;20042;-80
2023/02/22 11:21:37;;;;;;;12.93;10.50;;;16.40;90.00;;;;;;6240644;28;20061;-80
2023/02/22 11:24:46;;;;;;;14.77;11.02;;;16.70;88.70;;;;;;6236293;28;20056;-80
2023/02/22 11:27:48;;;;;;;19.35;10.25;;;17.20;87.30;;;;;;6235916;28;20149;-81
2023/02/22 11:30:52;;;;;;;10.48;9.00;;;17.60;86.60;;;;;;6235800;28;20137;-81
2023/02/22 11:33:56;;;;;;;10.77;9.50;;;18.10;85.10;;;;;;6242693;28;20050;-79
2023/02/22 11:37:16;;;;;;;17.10;9.20;;;18.40;83.30;;;;;;6243789;28;20404;-80
2023/02/22 11:40:21;;;;;;;12.27;10.13;;;18.80;81.20;;;;;;6243926;28;20053;-81
2023/02/22 11:43:23;;;;;;;14.43;8.40;;;19.10;80.50;;;;;;6248520;28;20073;-80
2023/02/22 11:46:30;;;;;;;12.52;8.30;;;19.50;78.60;;;;;;6248273;28;20045;-80
2023/02/22 11:49:35;;;;;;;9.27;7.72;;;19.30;76.70;;;;;;6248179;28;20056;-81
2023/02/22 11:52:43;;;;;;;10.02;8.00;;;19.40;75.70;;;;;;6247157;28;20056;-80
2023/02/22 11:55:54;;;;;;;14.90;9.00;;;19.50;74.60;;;;;;6240163;28;20050;-80
2023/02/22 11:59:07;;;;;;;7.78;6.97;;;19.40;73.90;;;;;;6238702;28;20069;-80
2023/02/22 12:02:27;;;;;;;9.80;8.05;;;19.40;72.20;;;;;;6243528;28;20077;-81
2023/02/22 12:05:43;;;;;;;13.77;7.70;;;19.30;71.80;;;;;;6236746;28;20052;-80
2023/02/22 12:08:57;;;;;;;15.75;8.40;;;19.60;71.60;;;;;;6230447;28;20416;-81
2023/02/22 12:12:10;;;;;;;11.48;9.93;;;20.10;70.80;;;;;;6250398;23;20046;-79
2023/02/22 12:15:23;;;;;;;11.45;9.07;;;20.50;69.50;;;;;;6217250;28;20052;-77
2023/02/22 12:18:34;;;;;;;16.25;10.23;;;20.80;69.00;;;;;;6217534;28;20455;-79
2023/02/22 12:21:39;;;;;;;16.17;10.60;;;21.00;67.60;;;;;;6219489;28;20500;-80
2023/02/22 12:24:52;;;;;;;13.63;10.30;;;21.20;66.90;;;;;;6219130;28;20495;-80
2023/02/22 12:27:57;;;;;;;16.02;9.13;;;21.30;66.10;;;;;;6219075;28;20045;-81
2023/02/22 12:31:13;;;;;;;12.60;9.02;;;21.30;65.50;;;;;;6215926;28;20061;-81
2023/02/22 12:34:27;;;;;;;12.80;9.10;;;21.40;64.70;;;;;;6217047;28;20050;-80
2023/02/22 12:37:38;;;;;;;14.98;10.52;;;21.50;64.00;;;;;;6216963;28;20404;-80
2023/02/22 12:40:45;;;;;;;12.93;10.82;;;21.40;64.00;;;;;;6217072;28;20038;-80
2023/02/22 12:43:53;;;;;;;13.03;10.83;;;21.60;63.70;;;;;;6217627;28;20045;-80
2023/02/22 12:46:57;;;;;;;12.45;10.32;;;21.70;63.30;;;;;;6217521;28;20375;-80
2023/02/22 12:50:11;;;;;;;13.63;10.50;;;21.70;63.00;;;;;;6218342;28;20054;-80
2023/02/22 12:53:19;;;;;;;13.18;10.05;;;21.40;62.30;;;;;;6216356;28;20057;-79
2023/02/22 12:56:27;;;;;;;17.80;10.57;;;21.20;62.80;;;;;;6217382;28;20065;-80
2023/02/22 12:59:34;;;;;;;19.63;11.43;;;21.20;62.50;;;;;;6217638;28;20045;-80
2023/02/22 13:02:39;;;;;;;13.32;11.05;;;20.70;62.00;;;;;;6217718;28;20400;-81
2023/02/22 13:05:52;;;;;;;19.80;11.82;;;20.50;62.90;;;;;;6217734;28;20038;-80
2023/02/22 13:09:08;;;;;;;21.23;10.95;;;20.20;62.30;;;;;;6212961;28;20526;-79
2023/02/22 13:12:16;;;;;;;16.05;12.70;;;20.00;62.70;;;;;;6216964;28;20057;-79
2023/02/22 13:15:23;;;;;;;18.20;12.52;;;19.80;63.40;;;;;;6218228;28;20041;-79
2023/02/22 13:18:32;;;;;;;19.92;11.77;;;19.60;63.70;;;;;;6216304;28;21433;-81
2023/02/22 13:21:46;;;;;;;20.05;13.27;;;19.60;64.00;;;;;;6217962;28;20045;-80
2023/02/22 13:25:01;;;;;;;17.60;12.15;;;19.50;64.40;;;;;;6218774;28;20456;-80
2023/02/22 13:28:22;;;;;;;15.07;11.35;;;19.30;64.30;;;;;;6220877;28;20046;-81
2023/02/22 13:31:41;;;;;;;15.90;11.93;;;19.10;64.60;;;;;;6220129;28;20062;-80
2023/02/22 13:35:15;;;;;;;15.63;10.80;;;19.00;65.30;;;;;;6217227;28;20050;-81
2023/02/22 13:38:50;;;;;;;20.33;11.45;;;18.90;65.40;;;;;;6218510;28;20046;-85
2023/02/22 13:42:14;;;;;;;17.17;12.60;;;18.80;65.90;;;;;;6218126;28;20048;-85
2023/02/22 13:46:07;;;;;;;15.40;9.88;;;18.40;66.00;;;;;;6216655;28;20061;-82
2023/02/22 13:49:26;;;;;;;13.88;9.98;;;18.20;66.90;;;;;;6153795;28;20055;-83
2023/02/22 13:52:31;;;;;;;20.00;10.98;;;18.10;66.80;;;;;;6222413;28;20046;-83
2023/02/22 13:55:35;;;;;;;14.70;10.80;;;17.50;67.50;;;;;;6222607;28;20046;-82
2023/02/22 13:58:50;;;;;;;15.88;11.27;;;17.20;68.40;;;;;;6222761;28;20758;-82
2023/02/22 14:01:54;;;;;;;19.92;12.57;;;17.10;69.50;;;;;;6220633;28;20061;-81
2023/02/22 14:04:55;;;;;;;21.95;17.60;;;17.10;69.50;;;;;;6224153;28;20053;-82
2023/02/22 14:07:57;;;;;;;22.85;13.98;;;17.00;69.90;;;;;;6225806;28;20050;-83
2023/02/22 14:10:59;;;;;;;33.65;27.73;;;17.00;70.30;;;;;;6227834;28;20045;-82
2023/02/22 14:14:16;;;;;;;53.03;43.88;;;16.80;71.00;;;;;;6228880;28;20041;-82
2023/02/22 14:17:28;;;;;;;18.52;14.82;;;16.60;71.60;;;;;;6222853;28;20085;-82
2023/02/22 14:20:33;;;;;;;26.83;22.20;;;16.70;71.80;;;;;;6230795;28;20135;-82
2023/02/22 14:23:39;;;;;;;22.48;15.82;;;16.60;72.10;;;;;;6229595;28;20049;-83
2023/02/22 14:26:52;;;;;;;38.70;32.00;;;16.60;72.40;;;;;;6230884;28;20048;-82
2023/02/22 14:29:59;;;;;;;19.00;13.05;;;16.50;72.80;;;;;;6233497;28;20045;-83
2023/02/22 14:33:01;;;;;;;47.85;42.13;;;16.40;73.30;;;;;;6231046;28;20042;-81
2023/02/22 14:36:04;;;;;;;24.17;18.70;;;16.50;73.80;;;;;;6230999;28;20053;-82
2023/02/22 14:39:15;;;;;;;57.83;51.58;;;16.40;74.00;;;;;;6225184;28;20058;-81
2023/02/22 14:42:21;;;;;;;20.05;16.45;;;16.20;74.50;;;;;;6228806;28;20044;-82
2023/02/22 14:45:27;;;;;;;23.52;14.30;;;16.10;75.50;;;;;;6228847;28;20042;-80
2023/02/22 14:48:38;;;;;;;27.65;16.10;;;15.80;75.60;;;;;;6228233;28;20061;-82
2023/02/22 14:51:43;;;;;;;22.73;15.75;;;15.80;76.30;;;;;;6230769;28;20057;-82
2023/02/22 14:55:03;;;;;;;17.05;13.75;;;15.70;76.40;;;;;;6229452;28;20400;-81
2023/02/22 14:58:09;;;;;;;20.50;13.50;;;15.70;77.30;;;;;;6224981;28;20052;-83
2023/02/22 15:01:25;;;;;;;19.13;14.32;;;15.60;77.30;;;;;;6230829;28;20408;-83
2023/02/22 15:04:30;;;;;;;16.90;14.68;;;15.50;77.50;;;;;;6228278;28;20400;-82
2023/02/22 15:07:34;;;;;;;19.30;13.38;;;15.50;77.40;;;;;;6227090;28;20049;-82
2023/02/22 15:10:42;;;;;;;16.95;13.32;;;15.50;77.50;;;;;;6226333;28;20046;-82
2023/02/22 15:13:50;;;;;;;23.75;12.35;;;15.40;77.60;;;;;;6228897;28;20046;-82
2023/02/22 15:16:57;;;;;;;18.42;12.20;;;15.40;78.00;;;;;;6224012;28;20049;-81
2023/02/22 15:19:59;;;;;;;20.95;13.43;;;15.60;78.10;;;;;;6230327;28;20050;-81
2023/02/22 15:23:09;;;;;;;13.55;10.98;;;15.50;77.80;;;;;;6230339;28;20120;-81
2023/02/22 15:26:25;;;;;;;17.10;12.95;;;15.70;78.20;;;;;;6233248;28;20115;-82
2023/02/22 15:29:32;;;;;;;17.63;11.68;;;15.70;78.20;;;;;;6231308;28;20132;-82
2023/02/22 15:32:47;;;;;;;19.90;13.77;;;15.70;78.60;;;;;;6231264;28;20102;-82
2023/02/22 15:39:42;;;;;;;22.75;12.23;;;15.80;78.30;;;;;;6227946;28;20068;-82
2023/02/22 15:42:46;;;;;;;17.23;12.15;;;15.60;79.10;;;;;;6229950;28;20041;-82
2023/02/22 15:45:49;;;;;;;17.00;12.30;;;15.50;79.00;;;;;;6227788;28;20142;-82
2023/02/22 15:49:19;;;;;;;18.23;11.75;;;15.50;79.30;;;;;;6232452;28;20041;-82
2023/02/22 15:52:25;;;;;;;17.67;11.82;;;15.30;79.40;;;;;;6227390;28;20391;-83
2023/02/22 15:55:31;;;;;;;22.23;13.43;;;15.30;80.20;;;;;;6227258;28;20060;-83
2023/02/22 15:58:33;;;;;;;62.15;40.08;;;15.20;80.20;;;;;;6229628;28;20486;-83
2023/02/22 16:01:38;;;;;;;23.75;13.80;;;15.00;80.50;;;;;;6227719;28;20050;-83
2023/02/22 16:04:42;;;;;;;16.88;11.85;;;14.80;80.80;;;;;;6227555;28;20046;-82